Time;durP1;ratioP1;P1;durP2;ratioP2;P2;SDS_P1;SDS_P2;PMS_P1;PMS_P2;Temp;Humidity;BMP_temperature;BMP_pressure;BME280_temperature;BME280_humidity;BME280_pressure;Samples;Min_cycle;Max_cycle;Signal;HPM_P1;HPM_P2
2022/09/10 00:01:31;;;;;;;1.65;1.20;;;;;;;17.34;100.00;99959.83;2769285;84;21035;-86
2022/09/10 00:05:42;;;;;;;2.58;1.45;;;;;;;17.42;100.00;99965.14;2762331;85;21035;-86
2022/09/10 00:09:45;;;;;;;3.00;1.62;;;;;;;17.42;100.00;99962.45;2751717;85;21518;-86
2022/09/10 00:13:47;;;;;;;2.17;1.40;;;;;;;17.43;100.00;99954.72;2758113;85;21054;-86
2022/09/10 00:17:48;;;;;;;6.30;2.15;;;;;;;17.53;100.00;99950.44;2760650;84;21090;-86
2022/09/10 00:21:50;;;;;;;4.15;2.08;;;;;;;17.49;100.00;99947.30;2750659;85;21043;-86
2022/09/10 00:25:54;;;;;;;3.12;1.77;;;;;;;17.49;100.00;99941.92;2752654;84;21016;-86
2022/09/10 00:29:55;;;;;;;2.67;1.47;;;;;;;17.39;100.00;99944.84;2734060;85;21066;-86
2022/09/10 00:33:59;;;;;;;3.17;1.35;;;;;;;17.49;100.00;99951.33;2748390;84;21095;-85
2022/09/10 00:38:00;;;;;;;1.00;0.80;;;;;;;17.47;100.00;99942.58;2761426;84;21036;-86
2022/09/10 00:42:01;;;;;;;1.52;0.80;;;;;;;17.60;100.00;99954.59;2752845;85;21066;-85
2022/09/10 00:46:03;;;;;;;2.87;0.90;;;;;;;17.52;100.00;99950.97;2665177;86;21018;-85
2022/09/10 00:50:34;;;;;;;1.98;1.12;;;;;;;17.45;100.00;99944.61;2737950;84;21591;-85
2022/09/10 00:54:36;;;;;;;2.58;1.02;;;;;;;17.48;100.00;99955.01;2740406;85;21368;-86
2022/09/10 00:58:37;;;;;;;1.82;1.47;;;;;;;17.52;100.00;99952.80;2732959;85;21019;-86
2022/09/10 01:02:39;;;;;;;0.62;0.42;;;;;;;17.41;100.00;99946.00;2754670;85;21035;-87
2022/09/10 01:06:44;;;;;;;2.40;1.12;;;;;;;17.49;100.00;99945.95;2759006;84;21099;-87
2022/09/10 01:11:22;;;;;;;2.20;0.70;;;;;;;17.51;100.00;99943.92;2767857;85;21535;-86
2022/09/10 01:15:39;;;;;;;0.70;0.68;;;;;;;17.50;100.00;99947.63;2755537;85;21035;-86
2022/09/10 01:20:15;;;;;;;1.17;0.82;;;;;;;17.49;100.00;99947.30;2765243;85;21023;-86
2022/09/10 01:24:43;;;;;;;0.82;0.53;;;;;;;17.48;100.00;99944.25;2743078;84;21067;-85
2022/09/10 01:29:20;;;;;;;1.30;0.60;;;;;;;17.51;100.00;99938.54;2750518;84;21091;-86
2022/09/10 01:33:36;;;;;;;1.72;0.72;;;;;;;17.47;100.00;99926.45;2736177;85;21110;-86
2022/09/10 01:37:39;;;;;;;3.35;0.75;;;;;;;17.47;100.00;99926.45;2732093;85;21535;-86
2022/09/10 01:41:40;;;;;;;2.40;1.35;;;;;;;17.46;100.00;99916.71;2756554;84;21039;-86
2022/09/10 01:45:53;;;;;;;1.00;0.47;;;;;;;17.47;100.00;99910.31;2757582;84;21050;-86
2022/09/10 01:50:28;;;;;;;5.35;1.12;;;;;;;17.53;100.00;99911.45;2742482;85;21046;-86
2022/09/10 01:54:57;;;;;;;1.20;0.65;;;;;;;17.54;100.00;99899.68;2743485;84;20989;-86
2022/09/10 01:59:13;;;;;;;1.15;0.80;;;;;;;17.53;100.00;99898.01;2737878;85;21028;-85
2022/09/10 02:03:19;;;;;;;1.27;0.88;;;;;;;17.54;100.00;99895.64;2741928;84;21035;-86
2022/09/10 02:07:23;;;;;;;1.12;1.02;;;;;;;17.60;100.00;99896.78;2755835;84;21040;-86
2022/09/10 02:11:25;;;;;;;2.30;0.82;;;;;;;17.51;100.00;99895.52;2736545;85;21040;-85
2022/09/10 02:15:28;;;;;;;1.15;1.10;;;;;;;17.52;100.00;99898.53;2727498;85;21516;-86
2022/09/10 02:19:29;;;;;;;0.80;0.37;;;;;;;17.55;100.00;99898.66;2744819;85;21665;-86
2022/09/10 02:23:43;;;;;;;1.15;0.80;;;;;;;17.52;100.00;99899.02;2766077;85;21126;-86
2022/09/10 02:27:44;;;;;;;2.22;1.20;;;;;;;17.54;100.00;99892.95;2762275;85;21537;-86
2022/09/10 02:31:46;;;;;;;1.50;1.30;;;;;;;17.56;100.00;99894.45;2692686;87;21165;-85
2022/09/10 02:35:48;;;;;;;0.53;0.40;;;;;;;17.60;100.00;99884.67;2737725;85;21146;-86
2022/09/10 02:39:50;;;;;;;1.07;0.70;;;;;;;17.61;100.00;99885.86;2734879;84;21538;-86
2022/09/10 02:43:52;;;;;;;1.25;0.85;;;;;;;17.58;100.00;99875.96;2759423;85;21602;-86
2022/09/10 02:47:53;;;;;;;0.60;0.60;;;;;;;17.60;100.00;99881.98;2762798;84;21078;-86
2022/09/10 02:51:55;;;;;;;0.50;0.40;;;;;;;17.67;100.00;99878.39;2739941;85;21087;-86
2022/09/10 02:55:56;;;;;;;2.65;0.93;;;;;;;17.62;100.00;99882.14;2728977;86;22475;-87
2022/09/10 02:59:57;;;;;;;1.17;0.50;;;;;;;17.58;100.00;99879.47;2680334;87;21087;-87
2022/09/10 03:03:59;;;;;;;1.05;0.90;;;;;;;17.64;100.00;99886.83;2664494;86;21024;-86
2022/09/10 03:08:00;;;;;;;8.60;1.25;;;;;;;17.74;100.00;99886.57;2754323;84;21099;-86
2022/09/10 03:12:02;;;;;;;1.07;0.72;;;;;;;17.73;100.00;99878.17;2753830;84;21095;-87
2022/09/10 03:16:03;;;;;;;4.42;1.07;;;;;;;17.75;100.00;99876.14;2764555;85;21114;-87
2022/09/10 03:20:06;;;;;;;0.93;0.55;;;;;;;17.75;100.00;99880.17;2758442;84;21553;-86
2022/09/10 03:24:10;;;;;;;3.05;0.98;;;;;;;17.82;100.00;99874.90;2739748;84;21208;-86
2022/09/10 03:28:12;;;;;;;0.72;0.40;;;;;;;17.93;100.00;99881.68;2788966;84;21097;-86
2022/09/10 03:32:13;;;;;;;1.60;0.80;;;;;;;18.03;100.00;99878.75;2694529;84;22330;-86
2022/09/10 03:36:15;;;;;;;5.50;0.60;;;;;;;18.16;100.00;99875.41;2767197;84;21023;-86
2022/09/10 03:40:16;;;;;;;2.58;0.90;;;;;;;18.20;100.00;99868.13;2696806;84;21748;-86
2022/09/10 03:44:18;;;;;;;2.62;0.50;;;;;;;18.22;100.00;99866.58;2780171;84;21569;-86
2022/09/10 03:48:20;;;;;;;1.20;0.80;;;;;;;18.13;100.00;99865.34;2799054;84;21129;-86
2022/09/10 03:52:21;;;;;;;2.50;1.47;;;;;;;17.93;100.00;99877.64;2771509;84;21050;-86
2022/09/10 03:56:23;;;;;;;2.50;1.30;;;;;;;17.76;100.00;99885.03;2781982;83;21590;-87
2022/09/10 04:00:25;;;;;;;2.42;1.67;;;;;;;17.62;100.00;99881.30;2788138;84;21055;-87
2022/09/10 04:04:28;;;;;;;3.50;1.42;;;;;;;17.54;100.00;99880.36;2737820;84;20994;-87
2022/09/10 04:08:29;;;;;;;2.25;1.30;;;;;;;17.64;100.00;99884.14;2766243;84;20990;-86
2022/09/10 04:12:30;;;;;;;2.67;0.93;;;;;;;17.76;100.00;99884.53;2771845;84;21351;-87
2022/09/10 04:16:31;;;;;;;2.80;0.78;;;;;;;17.88;100.00;99886.27;2774113;85;21030;-87
2022/09/10 04:20:33;;;;;;;2.05;1.00;;;;;;;17.99;100.00;99887.66;2776721;84;21011;-86
2022/09/10 04:24:34;;;;;;;3.25;1.32;;;;;;;18.04;100.00;99885.28;2777336;83;21099;-87
2022/09/10 04:28:36;;;;;;;0.70;0.70;;;;;;;18.11;100.00;99892.11;2781276;84;21050;-86
2022/09/10 04:32:38;;;;;;;1.60;0.47;;;;;;;18.05;100.00;99896.89;2750043;84;21118;-86
2022/09/10 04:36:39;;;;;;;3.12;1.57;;;;;;;18.03;100.00;99894.90;2757159;85;21094;-86
2022/09/10 04:40:42;;;;;;;1.75;1.15;;;;;;;18.00;100.00;99887.98;2767570;85;21050;-86
2022/09/10 04:44:44;;;;;;;7.00;1.47;;;;;;;17.87;100.00;99881.91;2773496;84;21027;-86
2022/09/10 04:48:45;;;;;;;1.37;0.70;;;;;;;17.79;100.00;99890.06;2748005;84;21050;-86
2022/09/10 04:52:47;;;;;;;4.10;1.92;;;;;;;17.80;100.00;99891.73;2769549;85;21073;-86
2022/09/10 04:56:49;;;;;;;2.08;0.93;;;;;;;17.82;100.00;99893.20;2767620;85;21070;-86
2022/09/10 05:00:50;;;;;;;3.55;1.42;;;;;;;17.89;100.00;99885.77;2759020;85;21534;-86
2022/09/10 05:04:52;;;;;;;1.32;1.00;;;;;;;17.93;100.00;99887.06;2776025;85;21026;-86
2022/09/10 05:08:54;;;;;;;2.60;1.57;;;;;;;18.05;100.00;99885.60;2774692;85;21039;-86
2022/09/10 05:12:55;;;;;;;4.15;1.47;;;;;;;18.08;100.00;99885.26;2786449;85;21030;-86
2022/09/10 05:16:57;;;;;;;1.15;1.05;;;;;;;18.00;100.00;99882.61;2763334;85;21034;-86
2022/09/10 05:20:58;;;;;;;2.87;0.85;;;;;;;18.02;100.00;99885.16;2759237;85;21075;-86
2022/09/10 05:25:00;;;;;;;7.97;1.60;;;;;;;18.08;100.00;99887.95;2756332;85;21026;-86
2022/09/10 05:29:01;;;;;;;1.65;1.15;;;;;;;18.16;100.00;99891.56;2761241;84;21020;-85
2022/09/10 05:33:03;;;;;;;2.55;0.85;;;;;;;18.11;100.00;99893.45;2761209;84;21000;-86
2022/09/10 05:37:07;;;;;;;1.62;1.00;;;;;;;18.05;100.00;99894.20;2750017;85;21422;-86
2022/09/10 05:41:09;;;;;;;1.10;0.65;;;;;;;17.94;100.00;99892.77;2753789;85;21086;-85
2022/09/10 05:45:11;;;;;;;1.07;0.90;;;;;;;17.87;100.00;99899.39;2763468;84;21063;-86
2022/09/10 05:49:12;;;;;;;3.50;1.65;;;;;;;17.85;100.00;99903.59;2737952;84;21288;-87
2022/09/10 05:53:14;;;;;;;3.87;2.08;;;;;;;17.79;100.00;99907.03;2721579;84;21039;-86
2022/09/10 05:57:15;;;;;;;2.22;1.57;;;;;;;17.76;100.00;99896.63;2741785;85;21043;-86
2022/09/10 06:01:17;;;;;;;5.20;1.72;;;;;;;17.83;100.00;99901.60;2766196;84;21012;-85
2022/09/10 06:05:22;;;;;;;4.17;1.60;;;;;;;18.04;100.00;99897.39;2702528;85;21031;-86
2022/09/10 06:09:23;;;;;;;5.87;1.40;;;;;;;18.28;100.00;99892.78;2744996;85;21047;-86
2022/09/10 06:13:26;;;;;;;2.95;1.62;;;;;;;18.28;100.00;99892.78;2733410;85;21039;-86
2022/09/10 06:17:27;;;;;;;4.30;2.42;;;;;;;18.46;100.00;99896.92;2764130;84;21051;-87
2022/09/10 06:21:28;;;;;;;3.87;1.90;;;;;;;19.01;100.00;99896.56;2766284;84;21039;-86
2022/09/10 06:25:30;;;;;;;3.02;1.75;;;;;;;19.74;100.00;99892.86;2729911;85;21078;-86
2022/09/10 06:29:34;;;;;;;3.02;1.62;;;;;;;20.31;100.00;99899.59;2703594;85;21074;-87
2022/09/10 06:33:35;;;;;;;1.42;1.17;;;;;;;20.77;100.00;99891.39;2737752;84;21121;-87
2022/09/10 06:37:36;;;;;;;3.65;1.50;;;;;;;20.87;100.00;99899.14;2747621;85;21027;-86
2022/09/10 06:41:37;;;;;;;1.87;1.20;;;;;;;20.90;96.89;99899.58;2762787;84;21118;-87
2022/09/10 06:45:39;;;;;;;2.37;1.65;;;;;;;21.00;95.83;99900.54;2744763;85;21050;-86
2022/09/10 06:49:40;;;;;;;2.37;1.42;;;;;;;20.75;95.29;99903.77;2746338;85;21072;-87
2022/09/10 06:53:46;;;;;;;3.33;2.15;;;;;;;20.45;90.48;99896.47;2747144;85;28229;-88
2022/09/10 06:57:48;;;;;;;7.75;3.08;;;;;;;20.27;95.17;99904.59;2759491;84;21036;-88
2022/09/10 07:01:49;;;;;;;4.00;3.08;;;;;;;20.31;94.19;99892.34;2715300;84;21549;-88
2022/09/10 07:05:54;;;;;;;2.72;1.75;;;;;;;20.44;95.94;99886.17;2737248;84;21083;-88
2022/09/10 07:09:54;;;;;;;5.97;3.35;;;;;;;20.51;91.19;99886.20;2742410;84;21079;-88
2022/09/10 07:13:55;;;;;;;3.37;1.92;;;;;;;20.30;88.69;99892.53;2706717;85;21016;-88
2022/09/10 07:17:56;;;;;;;6.35;2.10;;;;;;;20.19;88.48;99899.33;2718491;85;21738;-88
2022/09/10 07:21:57;;;;;;;5.22;2.30;;;;;;;20.16;90.57;99892.98;2749086;84;21039;-88
2022/09/10 07:26:09;;;;;;;2.72;2.52;;;;;;;20.19;91.99;99905.58;2772006;83;21098;-89
2022/09/10 07:30:12;;;;;;;2.22;1.50;;;;;;;20.02;91.93;99892.89;2762145;83;21030;-88
2022/09/10 07:34:13;;;;;;;5.80;2.08;;;;;;;19.82;89.63;99905.70;2753508;84;21034;-88
2022/09/10 07:38:15;;;;;;;3.20;1.50;;;;;;;19.70;91.24;99909.45;2759442;85;21027;-88
2022/09/10 07:42:16;;;;;;;3.67;1.15;;;;;;;19.71;90.77;99913.00;2756032;85;21050;-87
2022/09/10 07:46:19;;;;;;;3.05;2.55;;;;;;;19.63;92.66;99914.47;2758363;84;21051;-87
2022/09/10 07:50:21;;;;;;;1.80;1.30;;;;;;;19.61;89.50;99916.03;2757825;85;21015;-87
2022/09/10 07:54:23;;;;;;;3.40;2.02;;;;;;;19.70;90.06;99917.55;2759096;85;21024;-87
2022/09/10 07:58:25;;;;;;;2.08;1.62;;;;;;;19.61;91.91;99920.58;2760792;85;21599;-87
2022/09/10 08:02:26;;;;;;;3.47;1.37;;;;;;;19.55;90.49;99918.98;2757242;86;21031;-87
2022/09/10 08:06:27;;;;;;;4.25;1.80;;;;;;;19.68;91.40;99926.35;2757884;85;21594;-87
2022/09/10 08:10:29;;;;;;;3.72;1.85;;;;;;;19.73;90.26;99920.38;2759582;85;21042;-87
2022/09/10 08:14:30;;;;;;;2.70;1.82;;;;;;;20.10;90.29;99922.95;2757377;85;21047;-87
2022/09/10 08:18:31;;;;;;;5.22;2.70;;;;;;;20.38;87.72;99928.31;2770882;85;21560;-88
2022/09/10 08:22:34;;;;;;;1.72;1.27;;;;;;;20.49;86.80;99925.56;2756502;85;21132;-88
2022/09/10 08:26:35;;;;;;;10.03;1.55;;;;;;;20.51;84.87;99930.78;2760664;85;21026;-90
2022/09/10 08:30:36;;;;;;;2.87;1.60;;;;;;;20.77;86.26;99922.47;2766301;84;21573;-88
2022/09/10 08:34:39;;;;;;;2.83;1.05;;;;;;;20.85;87.20;99926.39;2733021;86;21034;-88
2022/09/10 08:38:41;;;;;;;3.77;1.12;;;;;;;21.03;84.92;99921.76;2735442;84;21080;-88
2022/09/10 08:42:48;;;;;;;1.52;1.42;;;;;;;21.22;86.95;99924.72;2766314;84;21094;-89
2022/09/10 08:47:03;;;;;;;2.20;1.50;;;;;;;21.29;84.95;99928.79;2765564;84;21086;-88
2022/09/10 08:51:10;;;;;;;1.85;1.22;;;;;;;21.28;81.99;99927.94;2734828;85;21000;-87
2022/09/10 08:55:22;;;;;;;6.78;1.40;;;;;;;21.50;84.55;99931.31;2746114;84;21089;-88
2022/09/10 08:59:35;;;;;;;2.95;1.45;;;;;;;21.70;84.66;99921.05;2766013;84;21055;-87
2022/09/10 09:03:41;;;;;;;3.37;1.60;;;;;;;21.80;82.38;99925.50;2748531;85;21101;-87
2022/09/10 09:07:44;;;;;;;2.05;1.52;;;;;;;21.92;80.01;99926.24;2747080;85;21074;-87
2022/09/10 09:12:06;;;;;;;1.85;1.25;;;;;;;22.01;82.08;99924.15;2770462;84;21236;-87
2022/09/10 09:16:15;;;;;;;5.50;1.80;;;;;;;22.17;83.27;99918.30;2767610;85;21324;-87
2022/09/10 09:20:32;;;;;;;3.10;0.72;;;;;;;22.31;78.91;99920.98;2768583;83;21035;-88
2022/09/10 09:24:59;;;;;;;4.17;1.60;;;;;;;21.89;77.80;99919.89;2764213;85;21027;-88
2022/09/10 09:29:08;;;;;;;2.47;1.15;;;;;;;21.86;83.00;99923.84;2787221;84;21041;-87
2022/09/10 09:33:15;;;;;;;3.67;1.65;;;;;;;21.99;80.60;99902.69;2766366;84;21043;-87
2022/09/10 09:37:21;;;;;;;5.53;1.17;;;;;;;22.15;79.78;99907.35;2771849;83;21169;-86
2022/09/10 09:41:36;;;;;;;2.12;1.57;;;;;;;22.15;81.95;99907.35;2786513;83;21058;-86
2022/09/10 09:45:46;;;;;;;1.57;0.62;;;;;;;22.10;78.23;99899.85;2771216;84;21026;-85
2022/09/10 09:49:48;;;;;;;2.60;0.95;;;;;;;22.07;79.26;99895.71;2769846;83;21117;-86
2022/09/10 09:53:59;;;;;;;2.25;0.95;;;;;;;22.01;77.55;99899.27;2767311;84;21113;-85
2022/09/10 09:58:26;;;;;;;7.65;1.27;;;;;;;21.99;80.88;99897.81;2769660;84;21013;-87
2022/09/10 10:02:29;;;;;;;3.75;1.30;;;;;;;22.18;77.63;99889.31;2621127;88;21110;-89
2022/09/10 10:06:35;;;;;;;1.85;1.47;;;;;;;22.10;78.05;99889.86;2622432;89;21149;-90
2022/09/10 10:10:36;;;;;;;9.53;1.57;;;;;;;22.23;79.01;99883.58;2642088;88;21167;-89
2022/09/10 10:14:41;;;;;;;4.70;1.12;;;;;;;22.28;77.12;99881.59;2650601;89;21105;-90
2022/09/10 10:18:44;;;;;;;1.57;0.60;;;;;;;22.33;79.08;99880.96;2626835;88;21581;-90
2022/09/10 10:22:49;;;;;;;1.45;1.10;;;;;;;22.39;80.11;99873.33;2645776;87;21069;-88
2022/09/10 10:26:50;;;;;;;3.87;1.40;;;;;;;22.35;79.55;99872.91;2624507;88;21124;-88
2022/09/10 10:30:54;;;;;;;1.67;1.00;;;;;;;22.42;77.92;99872.08;2593063;88;21450;-86
2022/09/10 10:35:10;;;;;;;1.25;1.15;;;;;;;22.40;77.34;99874.98;2613924;88;21058;-86
2022/09/10 10:39:30;;;;;;;;;;;;;;;22.24;76.55;99874.95;2664503;88;21091;-87
2022/09/10 10:43:55;;;;;;;1.67;0.80;;;;;;;22.10;76.91;99873.61;2627708;89;20149;-87
2022/09/10 10:48:08;;;;;;;1.75;1.00;;;;;;;22.21;76.14;99871.31;2624547;89;21114;-87
2022/09/10 10:52:39;;;;;;;5.37;1.95;;;;;;;22.32;76.37;99863.86;2624325;89;21571;-86
2022/09/10 10:57:00;;;;;;;1.92;0.88;;;;;;;22.50;78.38;99863.21;2574023;90;21054;-87
2022/09/10 11:01:19;;;;;;;1.17;0.57;;;;;;;22.68;76.21;99854.87;2477277;94;21117;-87
2022/09/10 11:05:37;;;;;;;1.98;0.88;;;;;;;22.74;71.33;99847.24;2472026;93;21038;-88
2022/09/10 11:09:43;;;;;;;0.62;0.40;;;;;;;22.79;73.44;99845.22;2461058;93;21086;-88
2022/09/10 11:14:02;;;;;;;9.18;0.82;;;;;;;22.73;70.00;99842.88;2464566;95;21117;-89
2022/09/10 11:18:17;;;;;;;2.08;1.10;;;;;;;22.96;70.73;99840.94;2469981;94;21149;-89
2022/09/10 11:22:24;;;;;;;2.58;0.70;;;;;;;23.20;73.35;99843.92;2477196;93;21119;-88
2022/09/10 11:26:40;;;;;;;3.25;1.12;;;;;;;23.14;73.75;99842.07;2474816;94;21098;-89
2022/09/10 11:30:47;;;;;;;3.17;0.60;;;;;;;23.08;72.32;99840.25;2392170;96;21234;-89
2022/09/10 11:35:11;;;;;;;4.60;1.70;;;;;;;23.16;71.26;99831.83;2478434;95;21133;-89
2022/09/10 11:39:30;;;;;;;1.37;1.22;;;;;;;23.36;73.03;99827.64;2489699;93;21600;-87
2022/09/10 11:44:01;;;;;;;1.70;0.75;;;;;;;23.68;72.92;99814.52;2525861;92;21122;-89
2022/09/10 11:48:22;;;;;;;1.52;0.70;;;;;;;23.77;70.61;99813.16;2522547;92;21089;-88
2022/09/10 11:52:28;;;;;;;3.50;0.95;;;;;;;23.48;67.86;99814.69;2532244;91;21099;-88
2022/09/10 11:57:18;;;;;;;0.78;0.78;;;;;;;23.30;71.90;99821.76;2544738;91;21399;-88
2022/09/10 12:01:49;;;;;;;2.33;1.20;;;;;;;23.22;72.01;99813.84;2535232;91;21131;-88
2022/09/10 12:06:25;;;;;;;1.27;0.70;;;;;;;23.13;72.88;99816.00;2567256;88;21078;-88
2022/09/10 12:10:38;;;;;;;2.87;1.20;;;;;;;23.10;73.05;99805.59;2691665;87;20999;-87
2022/09/10 12:14:40;;;;;;;0.62;0.60;;;;;;;22.95;75.20;99802.67;2706653;85;21066;-87
2022/09/10 12:18:47;;;;;;;2.50;0.68;;;;;;;22.99;76.34;99793.58;2692065;87;21042;-87
2022/09/10 12:22:52;;;;;;;2.12;1.07;;;;;;;23.00;73.79;99789.00;2698974;87;21086;-87
2022/09/10 12:26:54;;;;;;;1.10;0.82;;;;;;;23.16;73.54;99787.07;2697020;85;21067;-88
2022/09/10 12:30:59;;;;;;;2.87;1.12;;;;;;;23.42;74.02;99793.38;2744463;85;21327;-88
2022/09/10 12:35:36;;;;;;;3.33;1.10;;;;;;;23.65;78.19;99791.89;2736676;85;21534;-88
2022/09/10 12:39:37;;;;;;;2.77;0.95;;;;;;;23.91;76.92;99785.34;2711961;87;21004;-88
2022/09/10 12:43:44;;;;;;;2.35;0.25;;;;;;;24.05;71.68;99776.54;2738698;85;21016;-90
2022/09/10 12:47:49;;;;;;;2.35;0.90;;;;;;;24.02;69.61;99777.00;2740529;85;21082;-87
2022/09/10 12:51:55;;;;;;;4.30;0.75;;;;;;;24.03;69.73;99774.58;2741414;85;21055;-87
2022/09/10 12:56:04;;;;;;;1.37;0.68;;;;;;;24.11;71.49;99763.94;2738116;86;21051;-87
2022/09/10 13:00:24;;;;;;;0.65;0.33;;;;;;;24.08;70.38;99761.14;2736075;84;21032;-87
2022/09/10 13:04:33;;;;;;;1.27;0.57;;;;;;;24.01;69.07;99766.31;2738438;85;21062;-88
2022/09/10 13:08:42;;;;;;;2.37;0.60;;;;;;;23.88;71.49;99773.58;2737153;86;21101;-88
2022/09/10 13:12:44;;;;;;;2.33;1.12;;;;;;;23.74;70.95;99772.87;2726005;85;21385;-86
2022/09/10 13:16:46;;;;;;;1.60;0.80;;;;;;;23.75;72.88;99762.86;2755661;85;21043;-86
2022/09/10 13:20:47;;;;;;;4.37;1.30;;;;;;;23.71;73.78;99776.59;2746456;85;21556;-87
2022/09/10 13:25:02;;;;;;;3.98;1.75;;;;;;;23.61;72.54;99767.61;2742556;84;21043;-87
2022/09/10 13:29:34;;;;;;;1.65;1.35;;;;;;;23.35;76.78;99754.59;2724293;85;21079;-87
2022/09/10 13:33:54;;;;;;;2.62;1.10;;;;;;;23.44;80.41;99753.78;2737859;85;21083;-86
2022/09/10 13:38:31;;;;;;;3.05;1.07;;;;;;;23.82;79.79;99735.94;2737490;85;21071;-87
2022/09/10 13:43:14;;;;;;;3.72;1.20;;;;;;;24.24;75.81;99741.19;2750223;85;21038;-86
2022/09/10 13:47:38;;;;;;;1.67;1.00;;;;;;;24.67;76.88;99735.26;2642934;88;21044;-86
2022/09/10 13:51:53;;;;;;;2.08;1.12;;;;;;;24.91;71.87;99725.80;2587730;90;21076;-86
2022/09/10 13:56:01;;;;;;;3.00;0.78;;;;;;;25.07;71.23;99724.27;2580837;91;21091;-86
2022/09/10 14:00:14;;;;;;;2.77;0.78;;;;;;;25.21;71.77;99726.22;2579565;90;21154;-87
2022/09/10 14:04:29;;;;;;;6.83;1.20;;;;;;;24.94;67.98;99728.05;2585900;91;21077;-87
2022/09/10 14:08:37;;;;;;;;;;;;;;;24.44;72.03;99727.31;2574010;91;21113;-86
2022/09/10 14:12:39;;;;;;;6.37;1.22;;;;;;;24.13;75.53;99731.09;2571255;90;20141;-86
2022/09/10 14:16:51;;;;;;;3.30;1.05;;;;;;;23.92;78.94;99734.05;2597380;88;21139;-85
2022/09/10 14:20:52;;;;;;;3.50;0.85;;;;;;;23.65;79.11;99733.52;2652794;88;21207;-85
2022/09/10 14:25:02;;;;;;;3.50;1.05;;;;;;;23.33;83.17;99745.33;2664922;85;21616;-86
2022/09/10 14:29:24;;;;;;;1.45;0.90;;;;;;;22.96;84.04;99750.63;2726855;84;21047;-86
2022/09/10 14:33:34;;;;;;;1.80;1.30;;;;;;;22.70;85.22;99744.88;2797692;84;21021;-85
2022/09/10 14:37:36;;;;;;;1.40;0.80;;;;;;;22.50;87.81;99743.98;2773317;83;21038;-86
2022/09/10 14:41:38;;;;;;;4.08;1.60;;;;;;;22.38;86.32;99742.42;2772336;84;21058;-86
2022/09/10 14:45:45;;;;;;;1.00;0.90;;;;;;;22.27;85.96;99743.13;2794330;83;21008;-86
2022/09/10 14:49:46;;;;;;;1.57;0.95;;;;;;;22.26;87.06;99743.64;2771269;84;21027;-87
2022/09/10 14:53:56;;;;;;;2.05;1.30;;;;;;;22.23;87.49;99746.78;2781253;84;21532;-87
2022/09/10 14:57:58;;;;;;;3.20;1.50;;;;;;;22.34;88.33;99747.16;2774055;84;21068;-86
2022/09/10 15:02:01;;;;;;;5.30;0.93;;;;;;;22.38;87.65;99747.84;2760591;84;21023;-86
2022/09/10 15:06:02;;;;;;;2.30;1.02;;;;;;;22.24;85.97;99753.05;2754253;84;21019;-87
2022/09/10 15:10:05;;;;;;;5.72;1.70;;;;;;;22.05;86.44;99748.02;2775452;84;21087;-87
2022/09/10 15:14:10;;;;;;;4.17;1.07;;;;;;;21.92;84.00;99741.63;2752996;85;21679;-86
2022/09/10 15:18:13;;;;;;;4.47;1.30;;;;;;;21.73;83.54;99740.63;2759072;85;21016;-85
2022/09/10 15:22:25;;;;;;;2.75;1.35;;;;;;;21.64;85.41;99751.36;2719309;84;21035;-87
2022/09/10 15:26:27;;;;;;;1.62;1.00;;;;;;;21.55;84.55;99747.52;2768264;84;20969;-86
2022/09/10 15:30:28;;;;;;;1.02;0.90;;;;;;;21.50;82.44;99756.80;2754555;85;21035;-86
2022/09/10 15:34:30;;;;;;;1.32;0.90;;;;;;;21.44;82.29;99752.23;2757047;84;21110;-85
2022/09/10 15:38:31;;;;;;;3.10;1.62;;;;;;;21.47;84.18;99747.75;2770946;84;21507;-85
2022/09/10 15:42:32;;;;;;;2.87;1.27;;;;;;;21.51;84.27;99750.34;2763458;84;21348;-88
2022/09/10 15:46:34;;;;;;;1.37;0.78;;;;;;;21.43;85.99;99757.84;2750581;85;20991;-88
2022/09/10 15:50:37;;;;;;;0.75;0.65;;;;;;;21.45;88.20;99759.81;2751302;85;21653;-88
2022/09/10 15:54:38;;;;;;;1.02;0.50;;;;;;;21.43;89.02;99761.39;2751252;85;21109;-89
2022/09/10 15:58:40;;;;;;;0.30;0.30;;;;;;;21.48;86.10;99758.88;2746807;85;21038;-87
2022/09/10 16:02:46;;;;;;;0.90;0.68;;;;;;;21.44;85.42;99760.35;2781197;85;21513;-88
2022/09/10 16:06:46;;;;;;;0.85;0.62;;;;;;;21.38;86.58;99760.66;2765264;85;21042;-88
2022/09/10 16:10:47;;;;;;;1.25;0.50;;;;;;;21.26;87.32;99757.77;2751967;85;21032;-88
2022/09/10 16:14:51;;;;;;;1.07;0.65;;;;;;;21.23;87.86;99760.05;2719140;85;21221;-88
2022/09/10 16:18:56;;;;;;;1.32;0.35;;;;;;;21.14;88.85;99755.38;2756051;84;21035;-88
2022/09/10 16:22:58;;;;;;;4.00;0.72;;;;;;;21.08;88.09;99750.81;2751795;84;21050;-88
2022/09/10 16:26:59;;;;;;;1.95;0.50;;;;;;;20.95;88.21;99764.63;2750550;85;21011;-87
2022/09/10 16:31:17;;;;;;;2.45;0.75;;;;;;;20.85;89.37;99764.72;2753616;84;21055;-88
2022/09/10 16:35:19;;;;;;;2.00;0.88;;;;;;;20.75;90.92;99759.19;2736932;85;21043;-87
2022/09/10 16:39:21;;;;;;;0.57;0.40;;;;;;;20.66;91.15;99765.30;2690075;87;21027;-86
2022/09/10 16:43:23;;;;;;;1.30;1.17;;;;;;;20.72;90.90;99761.45;2736153;84;21031;-87
2022/09/10 16:47:24;;;;;;;1.47;0.60;;;;;;;20.67;90.64;99766.12;2734899;85;21055;-87
2022/09/10 16:51:32;;;;;;;1.30;0.47;;;;;;;20.59;90.25;99771.19;2708543;85;20999;-88
2022/09/10 16:55:30;;;;;;;0.70;0.50;;;;;;;20.52;90.14;99769.81;2745003;85;21019;-88
2022/09/10 16:59:31;;;;;;;2.90;1.27;;;;;;;20.46;90.40;99773.34;2746249;85;21022;-87
2022/09/10 17:03:32;;;;;;;3.08;1.20;;;;;;;20.36;90.64;99776.97;2687655;85;21011;-87
2022/09/10 17:07:33;;;;;;;3.00;0.98;;;;;;;20.37;90.93;99782.15;2742623;85;21047;-89
2022/09/10 17:11:35;;;;;;;4.28;1.17;;;;;;;20.33;90.94;99788.15;2747217;85;21010;-90
2022/09/10 17:15:37;;;;;;;5.08;2.17;;;;;;;20.20;91.93;99783.53;2716268;85;21003;-88
2022/09/10 17:19:38;;;;;;;4.90;1.70;;;;;;;20.08;93.55;99776.03;2742317;85;21051;-88
2022/09/10 17:23:40;;;;;;;2.75;0.93;;;;;;;20.03;93.28;99778.48;2685144;84;21710;-88
2022/09/10 17:27:42;;;;;;;3.25;1.27;;;;;;;20.05;93.61;99776.44;2720675;84;20975;-88
2022/09/10 17:31:47;;;;;;;1.72;0.90;;;;;;;20.08;93.53;99774.68;2741538;85;21067;-89
2022/09/10 17:35:59;;;;;;;1.45;0.78;;;;;;;20.10;93.16;99779.36;2687862;86;21030;-88
2022/09/10 17:40:00;;;;;;;8.18;1.52;;;;;;;19.97;96.49;99784.69;2743151;85;21812;-88
2022/09/10 17:44:02;;;;;;;1.22;0.75;;;;;;;19.88;95.47;99792.61;2743136;85;21011;-89
2022/09/10 17:48:04;;;;;;;2.15;1.30;;;;;;;19.68;97.61;99791.98;2739066;85;21071;-88
2022/09/10 17:52:05;;;;;;;3.45;2.33;;;;;;;19.67;97.58;99791.66;2727525;85;21093;-88
2022/09/10 17:56:11;;;;;;;2.17;1.00;;;;;;;19.64;98.64;99789.34;2740194;85;21003;-89
2022/09/10 18:00:13;;;;;;;3.67;1.62;;;;;;;19.68;100.00;99791.98;2738221;85;21524;-89
2022/09/10 18:04:15;;;;;;;1.27;1.17;;;;;;;19.40;100.00;99805.80;2745884;85;21063;-87
2022/09/10 18:08:16;;;;;;;3.45;2.65;;;;;;;19.37;97.96;99799.95;2742121;85;21596;-88
2022/09/10 18:12:17;;;;;;;10.05;1.87;;;;;;;19.39;99.63;99801.93;2731563;85;21031;-86
2022/09/10 18:16:23;;;;;;;7.28;1.52;;;;;;;19.38;100.00;99827.23;2744513;85;20996;-87
2022/09/10 18:20:28;;;;;;;5.72;2.60;;;;;;;19.25;96.18;99834.17;2742997;85;21058;-87
2022/09/10 18:24:30;;;;;;;3.72;1.02;;;;;;;19.19;93.59;99830.91;2750959;85;21047;-88
2022/09/10 18:28:31;;;;;;;1.50;1.27;;;;;;;19.17;94.44;99830.27;2740982;84;21074;-87
2022/09/10 18:32:33;;;;;;;1.50;1.12;;;;;;;19.14;97.15;99834.71;2738554;84;21058;-88
2022/09/10 18:36:35;;;;;;;1.35;1.25;;;;;;;19.16;97.31;99831.80;2771305;84;21006;-88
2022/09/10 18:40:37;;;;;;;1.05;0.82;;;;;;;19.21;96.04;99835.59;2747900;84;21109;-88
2022/09/10 18:44:39;;;;;;;1.10;0.70;;;;;;;19.27;96.71;99833.98;2766493;84;21645;-88
2022/09/10 18:48:41;;;;;;;3.72;1.92;;;;;;;19.35;96.62;99823.58;2716742;86;21067;-87
2022/09/10 18:52:43;;;;;;;3.40;1.90;;;;;;;19.43;97.24;99822.08;2757298;84;21051;-88
2022/09/10 18:56:46;;;;;;;6.50;2.83;;;;;;;19.44;95.84;99830.48;2713467;86;21725;-88
2022/09/10 19:00:48;;;;;;;4.33;2.12;;;;;;;19.33;95.30;99832.38;2750790;85;21381;-87
2022/09/10 19:04:49;;;;;;;4.15;1.62;;;;;;;19.20;95.32;99831.76;2724296;85;20993;-87
2022/09/10 19:09:04;;;;;;;3.85;2.45;;;;;;;19.02;95.41;99837.59;2720506;85;21018;-87
2022/09/10 19:13:06;;;;;;;1.85;1.62;;;;;;;18.91;96.95;99828.97;2743098;84;21543;-88
2022/09/10 19:17:07;;;;;;;2.52;2.33;;;;;;;18.89;97.09;99829.68;2754508;85;21074;-88